AirNav   ProFlight Series 2 Aviation Headset
 
 834 users online  

9PN9 Perin Heliport
Pen Argyl, Pennsylvania, USA

GOING TO PEN ARGYL?


FAA INFORMATION EFFECTIVE 18 JUNE 2020

Location

FAA Identifier: 9PN9
Lat/Long: 40-50-49.3440N 075-14-37.6460W
40-50.822400N 075-14.627433W
40.8470400,-75.2437906
(estimated)
Elevation: 740 ft. / 226 m (estimated)
Variation: 12W (1985)
From city: 2 miles S of PEN ARGYL, PA
Time zone: UTC -4 (UTC -5 during Standard Time)
Zip code: 18072

Heliport Operations

Heliport use: Private use. Permission required prior to landing
Activation date: 05/1989
Control tower: no
ARTCC: NEW YORK CENTER
FSS: WILLIAMSPORT FLIGHT SERVICE STATION
Attendance: UNATNDD
Wind indicator: lighted
Segmented circle: no
Lights: SS-SR

Heliport Communications

WX ASOS at ABE (15 nm SW): 126.975 (610-266-3579)
WX ASOS at MPO (18 nm N): 120.275 (570-839-1584)
WX AWOS-3 at XLL (20 nm SW): 127.875 (610-231-3111)

Nearby radio navigation aids

VOR radial/distance  VOR name  Freq  Var
FJCr063/12.0ALLENTOWN VORTAC117.5010W
STWr253/19.2STILLWATER VOR/DME109.6011W
BWZr290/19.4BROADWAY VOR/DME114.2011W
ETXr060/25.6EAST TEXAS VOR/DME110.2009W
SBJr315/27.8SOLBERG VOR/DME112.9010W
LVZr152/32.5WILKES-BARRE VORTAC111.6010W
SAXr259/34.6SPARTA VORTAC115.7011W
ARDr347/38.8YARDLEY VOR/DME108.2010W

 
NDB name  Hdg/Dist  Freq  Var  ID
CHATHAM293/37.525413WCAT -.-. .- -

Heliport Services

Runway Information

Helipad H1

Dimensions: 30 x 30 ft. / 9 x 9 m
Surface: concrete
Runway edge lights: FLD
Latitude: 40-50.822400N
Longitude: 075-14.627433W
Elevation: 740.0 ft.
Traffic pattern: leftleft

Heliport Ownership and Management from official FAA records

Ownership: Privately-owned
Owner: NOLAN A. PERIN
250 GREEN MEADOW LANE
PEN ARGYL, PA 18072
Phone 610-863-1375
Manager: NOLAN A. PERIN
250 GREEN MEADOW LANE
PEN ARGYL, PA 18072
Phone 610-704-1900

Heliport Operational Statistics

Aircraft based on the field: 1
Helicopters: 1
    

Additional Remarks

FOR CD CTC ALLENTOWN APCH AT 800-728-6322.

Instrument Procedures

There are no published instrument procedures at 9PN9.

Some nearby airports with instrument procedures:

N43 - Braden Airpark (6 nm S)
N53 - Stroudsburg-Pocono Airport (12 nm N)
1N7 - Blairstown Airport (13 nm NE)
KABE - Lehigh Valley International Airport (15 nm SW)
KMPO - Pocono Mountains Municipal Airport (18 nm N)
N85 - Alexandria Airport (19 nm SE)
KXLL - Allentown Queen City Municipal Airport (20 nm SW)
 
Loc | Ops | Rwys | IFR | FBO | Links
Com | Nav | Svcs | Stats | Notes
Area around 9PN9 (Perin Heliport)
 
Road maps at: MapQuest Bing Google
 
Aerial photo
No photo
 
Sectional chart

 
Airport distance calculator
Flying to Perin Heliport? Find the distance to fly.

From to 9PN9

Sunrise and sunset
Times for 14-Jul-2020
 Local
(UTC-4)
 Zulu
(UTC)
Morning civil twilight05:1109:11
Sunrise05:4309:43
Sunset20:3100:31
Evening civil twilight21:0301:03

Current date and time
Zulu (UTC)  15-Jul-2020 03:17:47
Local (UTC-4)  14-Jul-2020 23:17:47
 
METAR
KABE 
15nm SW 
150251Z 00000KT 10SM CLR 23/16 A3007 RMK AO2 SLP181 T02280156 51015
KMPO 
18nm N 
150253Z AUTO 35008KT 10SM CLR 19/14 A3014 RMK AO2 SLP197 T01940144 51014
KXLL 
20nm SW 
150255Z AUTO 00000KT 10SM CLR 22/17 A3009 RMK AO2
K22N 
24nm W 
150304Z AUTO 00000KT 10SM CLR 18/18 A3010 RMK AO2
K12N 
25nm NE 
150254Z AUTO 00000KT 19/18 A3009 RMK AO1 SLP181 T01940178 51018
KUKT 
25nm S 
150255Z AUTO 00000KT 10SM CLR 21/20 A3009 RMK A01
KCKZ 
28nm S 
150255Z AUTO 00000KT 10SM SCT016 19/19 A3010 RMK AO2
KSMQ 
30nm SE 
ASOS 120.60 908-722-2139
141553Z AUTO 31005KT 10SM CLR 28/17 A2996 RMK AO2 SLP143 T02780167
TAF
KABE 
15nm SW 
141720Z 1418/1518 32008KT P6SM FEW050 FM142300 VRB03KT P6SM SKC
NOTAMs
Click for the latest NOTAMs
NOTAMs are issued by the DoD/FAA and will open in a separate window not controlled by AirNav.

 

 
 

Would you like to see your business listed on this page?

 If your business provides an interesting product or service to pilots, flight crews, aircraft, or users of the Perin Heliport, you should consider listing it here.  To start the listing process, click on the button below
 
Add a business
 

Other Pages about Perin Heliport

Update a link
 
Copyright © AirNav, LLC. All rights reserved. Privacy Policy  Contact